createdAt,value
2023-02-06T00:00:17.930Z,29.878
2023-02-06T00:05:17.986Z,29.878
2023-02-06T00:10:18.732Z,29.874
2023-02-06T00:15:18.303Z,29.879
2023-02-06T00:20:18.958Z,29.877
2023-02-06T00:25:16.363Z,29.875
2023-02-06T00:30:18.102Z,29.876
2023-02-06T00:35:18.166Z,29.874
2023-02-06T00:40:18.203Z,29.876
2023-02-06T00:45:18.184Z,29.876
2023-02-06T00:50:18.200Z,29.881
2023-02-06T00:55:18.435Z,29.885
2023-02-06T01:00:18.429Z,29.883
2023-02-06T01:05:18.172Z,29.878
2023-02-06T01:10:16.347Z,29.879
2023-02-06T01:15:16.154Z,29.882
2023-02-06T01:20:16.419Z,29.879
2023-02-06T01:25:16.638Z,29.874
2023-02-06T01:30:16.462Z,29.879
2023-02-06T01:35:16.303Z,29.874
2023-02-06T01:40:16.579Z,29.874
2023-02-06T01:45:16.597Z,29.877
2023-02-06T01:50:16.624Z,29.874
2023-02-06T01:55:16.372Z,29.875
2023-02-06T02:00:16.373Z,29.874
2023-02-06T02:05:16.636Z,29.879
2023-02-06T02:10:16.588Z,29.882
2023-02-06T02:15:16.349Z,29.880
2023-02-06T02:20:16.810Z,29.879
2023-02-06T02:25:16.700Z,29.882
2023-02-06T02:30:16.546Z,29.880
2023-02-06T02:35:16.480Z,29.883
2023-02-06T02:40:16.783Z,29.881
2023-02-06T02:45:16.521Z,29.880
2023-02-06T02:50:16.536Z,29.878
2023-02-06T02:55:16.862Z,29.877
2023-02-06T03:00:16.722Z,29.875
2023-02-06T03:05:16.533Z,29.874
2023-02-06T03:10:17.146Z,29.874
2023-02-06T03:15:16.546Z,29.874
2023-02-06T03:20:16.665Z,29.876
2023-02-06T03:25:16.800Z,29.878
2023-02-06T03:30:16.649Z,29.876
2023-02-06T03:35:16.880Z,29.877
2023-02-06T03:40:17.314Z,29.877
2023-02-06T03:45:16.675Z,29.875
2023-02-06T03:50:16.757Z,29.874
2023-02-06T03:55:17.095Z,29.878
2023-02-06T04:00:16.818Z,29.875
2023-02-06T04:05:17.025Z,29.871
2023-02-06T04:10:17.183Z,29.872
2023-02-06T04:15:16.709Z,29.872
2023-02-06T04:20:16.972Z,29.877
2023-02-06T04:25:16.964Z,29.882
2023-02-06T04:30:16.873Z,29.879
2023-02-06T04:35:16.917Z,29.876
2023-02-06T04:40:16.946Z,29.875
2023-02-06T04:45:17.032Z,29.874
2023-02-06T04:50:17.000Z,29.871
2023-02-06T04:55:17.204Z,29.872
2023-02-06T05:00:17.987Z,29.869
2023-02-06T05:05:18.299Z,29.869
2023-02-06T05:10:18.549Z,29.864
2023-02-06T05:15:19.220Z,29.863
2023-02-06T05:20:18.079Z,29.861
2023-02-06T05:25:18.236Z,29.860
2023-02-06T05:30:18.142Z,29.862
2023-02-06T05:35:18.026Z,29.861
2023-02-06T05:40:18.161Z,29.860
2023-02-06T05:45:18.073Z,29.859
2023-02-06T05:50:18.381Z,29.860
2023-02-06T05:55:18.480Z,29.861
2023-02-06T06:00:18.252Z,29.860
2023-02-06T06:05:16.172Z,29.855
2023-02-06T06:10:16.477Z,29.857
2023-02-06T06:15:16.128Z,29.858
2023-02-06T06:20:16.288Z,29.861
2023-02-06T06:25:16.932Z,29.863
2023-02-06T06:30:16.534Z,29.863
2023-02-06T06:35:16.306Z,29.863
2023-02-06T06:40:16.400Z,29.856
2023-02-06T06:45:16.318Z,29.851
2023-02-06T06:50:16.297Z,29.851
2023-02-06T06:55:16.503Z,29.844
2023-02-06T07:00:16.524Z,29.848
2023-02-06T07:05:16.374Z,29.843
2023-02-06T07:10:16.492Z,29.840
2023-02-06T07:15:16.572Z,29.838
2023-02-06T07:20:17.470Z,29.842
2023-02-06T07:25:16.553Z,29.841
2023-02-06T07:30:16.523Z,29.839
2023-02-06T07:35:16.734Z,29.839
2023-02-06T07:40:16.859Z,29.836
2023-02-06T07:45:17.545Z,29.835
2023-02-06T07:50:16.590Z,29.835
2023-02-06T07:55:16.563Z,29.837
2023-02-06T08:00:16.711Z,29.836
2023-02-06T08:05:16.589Z,29.837
2023-02-06T08:10:17.093Z,29.836
2023-02-06T08:15:16.552Z,29.839
2023-02-06T08:20:16.680Z,29.833
2023-02-06T08:25:16.910Z,29.831
2023-02-06T08:30:16.904Z,29.831
2023-02-06T08:35:16.668Z,29.826
2023-02-06T08:40:19.083Z,29.827
2023-02-06T08:45:16.898Z,29.828
2023-02-06T08:50:17.096Z,29.830
2023-02-06T08:55:17.065Z,29.830
2023-02-06T09:00:16.802Z,29.838
2023-02-06T09:05:16.934Z,29.834
2023-02-06T09:10:27.162Z,29.833
2023-02-06T09:15:16.941Z,29.831
2023-02-06T09:20:16.908Z,29.828
2023-02-06T09:25:17.022Z,29.832
2023-02-06T09:30:16.858Z,29.837
2023-02-06T09:35:17.067Z,29.841
2023-02-06T09:40:18.014Z,29.842
2023-02-06T09:45:17.126Z,29.840
2023-02-06T09:50:17.122Z,29.842
2023-02-06T09:55:17.147Z,29.847
2023-02-06T10:00:17.009Z,29.849
2023-02-06T10:05:16.948Z,29.849
2023-02-06T10:10:17.385Z,29.848
2023-02-06T10:15:17.017Z,29.842
2023-02-06T10:20:17.883Z,29.842
2023-02-06T10:25:17.073Z,29.847
2023-02-06T10:30:17.046Z,29.853
2023-02-06T10:35:17.105Z,29.849
2023-02-06T10:40:17.206Z,29.850
2023-02-06T10:45:20.447Z,29.850
2023-02-06T10:50:17.349Z,29.849
2023-02-06T10:55:17.481Z,29.854
2023-02-06T11:00:17.126Z,29.855
2023-02-06T11:05:17.284Z,29.853
2023-02-06T11:10:17.337Z,29.850
2023-02-06T11:15:17.154Z,29.851
2023-02-06T11:20:17.268Z,29.853
2023-02-06T11:25:18.940Z,29.856
2023-02-06T11:30:17.314Z,29.859
2023-02-06T11:35:17.352Z,29.860
2023-02-06T11:40:17.475Z,29.862
2023-02-06T11:45:17.361Z,29.863
2023-02-06T11:50:17.531Z,29.865
2023-02-06T11:55:17.674Z,29.868
2023-02-06T12:00:17.446Z,29.870
2023-02-06T12:05:18.159Z,29.868
2023-02-06T12:10:17.481Z,29.869
2023-02-06T12:15:46.039Z,29.871
2023-02-06T12:20:17.386Z,29.868
2023-02-06T12:25:17.380Z,29.868
2023-02-06T12:30:17.839Z,29.868
2023-02-06T12:35:17.431Z,29.866
2023-02-06T12:40:17.794Z,29.867
2023-02-06T12:45:17.545Z,29.866
2023-02-06T12:50:17.549Z,29.868
2023-02-06T12:55:17.722Z,29.866
2023-02-06T13:00:17.764Z,29.865
2023-02-06T13:05:17.844Z,29.868
2023-02-06T13:10:17.673Z,29.866
2023-02-06T13:15:17.536Z,29.867
2023-02-06T13:20:17.661Z,29.868
2023-02-06T13:25:19.293Z,29.866
2023-02-06T13:30:17.757Z,29.868
2023-02-06T13:35:17.863Z,29.863
2023-02-06T13:40:17.989Z,29.863
2023-02-06T13:45:17.650Z,29.859
2023-02-06T13:50:17.714Z,29.859
2023-02-06T13:55:18.177Z,29.860
2023-02-06T14:00:17.761Z,29.862
2023-02-06T14:05:17.944Z,29.862
2023-02-06T14:10:17.857Z,29.864
2023-02-06T14:15:18.037Z,29.869
2023-02-06T14:20:17.853Z,29.874
2023-02-06T14:25:17.945Z,29.874
2023-02-06T14:30:17.897Z,29.875
2023-02-06T14:35:17.901Z,29.876
2023-02-06T14:40:18.066Z,29.878
2023-02-06T14:45:17.855Z,29.878
2023-02-06T14:50:18.097Z,29.881
2023-02-06T14:55:17.973Z,29.880
2023-02-06T15:00:18.025Z,29.885
2023-02-06T15:05:17.921Z,29.883
2023-02-06T15:10:18.486Z,29.884
2023-02-06T15:15:18.123Z,29.885
2023-02-06T15:20:18.094Z,29.884
2023-02-06T15:25:18.465Z,29.882
2023-02-06T15:30:18.070Z,29.883
2023-02-06T15:35:18.134Z,29.884
2023-02-06T15:40:18.219Z,29.885
2023-02-06T15:45:18.128Z,29.887
2023-02-06T15:50:18.142Z,29.890
2023-02-06T15:55:18.350Z,29.889
2023-02-06T16:00:18.308Z,29.888
2023-02-06T16:05:18.075Z,29.888
2023-02-06T16:10:18.344Z,29.889
2023-02-06T16:15:16.177Z,29.891
2023-02-06T16:20:16.532Z,29.889
2023-02-06T16:25:16.542Z,29.884
2023-02-06T16:30:16.234Z,29.884
2023-02-06T16:35:16.644Z,29.885
2023-02-06T16:40:16.354Z,29.883
2023-02-06T16:45:16.290Z,29.880
2023-02-06T16:50:16.436Z,29.880
2023-02-06T16:55:16.503Z,29.881
2023-02-06T17:00:16.585Z,29.885
2023-02-06T17:05:16.327Z,29.883
2023-02-06T17:10:17.307Z,29.882
2023-02-06T17:15:16.389Z,29.882
2023-02-06T17:20:16.636Z,29.883
2023-02-06T17:25:16.435Z,29.886
2023-02-06T17:30:17.436Z,29.888
2023-02-06T17:35:16.440Z,29.893
2023-02-06T17:40:16.903Z,29.894
2023-02-06T17:45:16.929Z,29.896
2023-02-06T17:50:16.533Z,29.893
2023-02-06T17:55:17.236Z,29.897
2023-02-06T18:00:16.626Z,29.894
2023-02-06T18:05:16.522Z,29.893
2023-02-06T18:10:16.655Z,29.892
2023-02-06T18:15:16.651Z,29.894
2023-02-06T18:20:16.935Z,29.893
2023-02-06T18:25:16.673Z,29.894
2023-02-06T18:30:16.659Z,29.890
2023-02-06T18:35:16.777Z,29.890
2023-02-06T18:40:16.841Z,29.890
2023-02-06T18:45:16.672Z,29.891
2023-02-06T18:50:16.690Z,29.890
2023-02-06T18:55:18.139Z,29.889
2023-02-06T19:00:16.810Z,29.887
2023-02-06T19:05:16.740Z,29.886
2023-02-06T19:10:16.856Z,29.887
2023-02-06T19:15:16.691Z,29.891
2023-02-06T19:20:16.907Z,29.890
2023-02-06T19:25:16.832Z,29.893
2023-02-06T19:30:17.036Z,29.896
2023-02-06T19:35:16.829Z,29.896
2023-02-06T19:40:17.238Z,29.895
2023-02-06T19:45:16.843Z,29.899
2023-02-06T19:50:17.101Z,29.899
2023-02-06T19:55:17.262Z,29.899
2023-02-06T20:00:17.034Z,29.896
2023-02-06T20:05:17.208Z,29.895
2023-02-06T20:10:17.353Z,29.894
2023-02-06T20:15:16.965Z,29.894
2023-02-06T20:20:17.130Z,29.895
2023-02-06T20:25:17.110Z,29.895
2023-02-06T20:30:17.049Z,29.893
2023-02-06T20:35:17.075Z,29.899
2023-02-06T20:40:17.354Z,29.902
2023-02-06T20:45:17.366Z,29.902
2023-02-06T20:50:17.155Z,29.901
2023-02-06T20:55:17.205Z,29.901
2023-02-06T21:00:17.268Z,29.904
2023-02-06T21:05:17.128Z,29.901
2023-02-06T21:10:17.222Z,29.900
2023-02-06T21:15:17.355Z,29.901
2023-02-06T21:20:17.243Z,29.901
2023-02-06T21:25:17.493Z,29.902
2023-02-06T21:30:17.195Z,29.903
2023-02-06T21:35:18.050Z,29.902
2023-02-06T21:40:17.469Z,29.901
2023-02-06T21:45:17.867Z,29.902
2023-02-06T21:50:17.451Z,29.899
2023-02-06T21:55:17.451Z,29.900
2023-02-06T22:00:17.328Z,29.900
2023-02-06T22:05:17.299Z,29.899
2023-02-06T22:10:17.528Z,29.901
2023-02-06T22:15:17.399Z,29.903
2023-02-06T22:20:17.531Z,29.903
2023-02-06T22:25:17.549Z,29.905
2023-02-06T22:30:17.395Z,29.901
2023-02-06T22:35:17.381Z,29.900
2023-02-06T22:40:17.657Z,29.902
2023-02-06T22:45:17.373Z,29.909
2023-02-06T22:50:17.425Z,29.905
2023-02-06T22:55:18.048Z,29.907
2023-02-06T23:00:17.529Z,29.910
2023-02-06T23:05:17.469Z,29.910
2023-02-06T23:10:17.522Z,29.909
2023-02-06T23:15:17.580Z,29.915
2023-02-06T23:20:17.634Z,29.921
2023-02-06T23:25:17.658Z,29.927
2023-02-06T23:30:17.816Z,29.935
2023-02-06T23:35:19.075Z,29.939
2023-02-06T23:40:17.966Z,29.945
2023-02-06T23:45:17.667Z,29.944
2023-02-06T23:50:17.671Z,29.948
2023-02-06T23:55:18.024Z,29.948
